ハバロフスク の空港の天気 - METARとTAF

ハバロフスク空港 ( UHHH / KHV ) - ロシア ハバロフスク
飛行場実況気象(Metar)
観測時間01/17 16:00 +10 (01/17 06:00 UTC)
風向・風速不定 1m/s
視程10km以上
天気現象
全天の8割程度の雲 雲底高度 1010m
気温-8℃
湿度73%
気圧1028hPa
METARUHHH 170600Z VRB01MPS 9999 BKN033CB M08/M12 Q1028 R23L/820355 NOSIG RMK QFE765/1020
過去の天気等 Google飛行場航空写真 Wunderground天気予報

過去48時間のMETAR

飛行場予報(TAF)
発表時間: 1/17 14:45 +10 (1/17 04:45 UTC)
予報対象時間: 17日16時 +10 ~ 18日22時 +10
風向・風速不定 1m/s
視程10km以上
全天の4割程度の積乱雲 雲底高度 610m
17日16時 +10 ~ 18日13時 +10 に一時的に
視程3,000m
天気現象弱いしゅう雪
TAF UHHH 170445Z 1706/1812 VRB01MPS 9999 SCT020CB
TEMPO 1706/1803 3000 -SHSN